AFR333F KBOS-LFPG
Flight info
| Callsign | AFR333F |
|---|---|
| Flight time | 6h 1m |
| Altitude | 39000 |
| Route | LBSTA8 LBSTA DCT TOPPS N635A RIKAL/M084F390 DCT 53N050W 54N040W 55N030W 55N020W DCT DOGAL/N0487F390 DCT BEXET/N0486F410 DCT MORAG DCT NUCHU L18 MID/N0470F290 Y803 SFD UM605 BIBAX |
| Aircraft | A359/H-SDE2E3GHIJ3J4J5LM1ORWXY/LB1D1 |
Departure
| Time | 2026-05-08 11:12 |
|---|---|
| Airport | Boston Logan International Airport (KBOS) |
Arrival
| Time | 2026-05-08 17:14 |
|---|---|
| Airport | Charles de Gaulle International Airport (LFPG) |
| Time | Latitude | Longitude | Altitude | Speed | Heading |
|---|---|---|---|---|---|
| 2026-05-08 10:09 | 42.37026 | -71.01727 | -113 ft | 1 kts | 245° |
| 2026-05-08 10:09 | 42.37026 | -71.01729 | 30 ft | 0 kts | 244° |
| 2026-05-08 10:10 | 42.37023 | -71.01737 | 31 ft | 0 kts | 244° |
| 2026-05-08 11:00 | 42.37024 | -71.01735 | 32 ft | 2 kts | 244° |
| 2026-05-08 11:00 | 42.37034 | -71.01705 | 31 ft | 2 kts | 244° |
| 2026-05-08 11:00 | 42.37044 | -71.01679 | 21 ft | 4 kts | 230° |
| 2026-05-08 11:00 | 42.37059 | -71.01659 | 18 ft | 4 kts | 194° |
| 2026-05-08 11:01 | 42.37072 | -71.01656 | 34 ft | 4 kts | 142° |
| 2026-05-08 11:01 | 42.37067 | -71.01648 | 30 ft | 4 kts | 135° |
| 2026-05-08 11:01 | 42.37060 | -71.01639 | 30 ft | 0 kts | 135° |
| 2026-05-08 11:04 | 42.37057 | -71.01634 | 32 ft | 4 kts | 135° |
| 2026-05-08 11:04 | 42.37009 | -71.01570 | 32 ft | 13 kts | 135° |
| 2026-05-08 11:04 | 42.36943 | -71.01475 | 32 ft | 15 kts | 133° |
| 2026-05-08 11:04 | 42.36871 | -71.01377 | 32 ft | 12 kts | 135° |
| 2026-05-08 11:05 | 42.36806 | -71.01291 | 32 ft | 14 kts | 135° |
| 2026-05-08 11:05 | 42.36717 | -71.01243 | 32 ft | 14 kts | 188° |
| 2026-05-08 11:05 | 42.36616 | -71.01280 | 32 ft | 16 kts | 197° |
| 2026-05-08 11:05 | 42.36511 | -71.01337 | 31 ft | 17 kts | 206° |
| 2026-05-08 11:06 | 42.36419 | -71.01392 | 32 ft | 8 kts | 201° |
| 2026-05-08 11:06 | 42.36380 | -71.01395 | 32 ft | 3 kts | 150° |
| 2026-05-08 11:06 | 42.36359 | -71.01360 | 32 ft | 9 kts | 124° |
| 2026-05-08 11:06 | 42.36310 | -71.01256 | 32 ft | 15 kts | 122° |
| 2026-05-08 11:07 | 42.36254 | -71.01128 | 32 ft | 17 kts | 115° |
| 2026-05-08 11:07 | 42.36205 | -71.00979 | 32 ft | 18 kts | 114° |
| 2026-05-08 11:07 | 42.36149 | -71.00814 | 32 ft | 20 kts | 114° |
| 2026-05-08 11:07 | 42.36099 | -71.00637 | 32 ft | 21 kts | 109° |
| 2026-05-08 11:08 | 42.36051 | -71.00445 | 31 ft | 22 kts | 107° |
| 2026-05-08 11:08 | 42.35999 | -71.00240 | 31 ft | 24 kts | 109° |
| 2026-05-08 11:08 | 42.35925 | -71.00042 | 32 ft | 22 kts | 132° |
| 2026-05-08 11:08 | 42.35816 | -70.99896 | 32 ft | 23 kts | 135° |
| 2026-05-08 11:09 | 42.35701 | -70.99741 | 32 ft | 24 kts | 135° |
| 2026-05-08 11:09 | 42.35607 | -70.99615 | 32 ft | 17 kts | 135° |
| 2026-05-08 11:09 | 42.35544 | -70.99531 | 32 ft | 0 kts | 135° |
| 2026-05-08 11:09 | 42.35535 | -70.99520 | 32 ft | 7 kts | 135° |
| 2026-05-08 11:10 | 42.35494 | -70.99439 | 32 ft | 10 kts | 107° |
| 2026-05-08 11:10 | 42.35499 | -70.99337 | 32 ft | 12 kts | 82° |
| 2026-05-08 11:10 | 42.35507 | -70.99292 | 32 ft | 4 kts | 65° |
| 2026-05-08 11:10 | 42.35522 | -70.99280 | 32 ft | 1 kts | 19° |
| 2026-05-08 11:11 | 42.35538 | -70.99280 | 32 ft | 4 kts | 357° |
| 2026-05-08 11:11 | 42.35563 | -70.99301 | 32 ft | 5 kts | 322° |
| 2026-05-08 11:11 | 42.35594 | -70.99339 | 32 ft | 9 kts | 316° |
| 2026-05-08 11:11 | 42.35758 | -70.99559 | 32 ft | 65 kts | 314° |
| 2026-05-08 11:12 | 42.36230 | -71.00190 | 29 ft | 124 kts | 315° |
| 2026-05-08 11:12 | 42.36960 | -71.01163 | 140 ft | 162 kts | 315° |
| 2026-05-08 11:12 | 42.37789 | -71.02184 | 858 ft | 159 kts | 317° |
| 2026-05-08 11:12 | 42.38536 | -71.03196 | 1774 ft | 148 kts | 308° |
| 2026-05-08 11:13 | 42.39074 | -71.04426 | 2270 ft | 163 kts | 297° |
| 2026-05-08 11:13 | 42.39572 | -71.05899 | 2610 ft | 182 kts | 296° |
| 2026-05-08 11:13 | 42.40181 | -71.07513 | 2977 ft | 201 kts | 300° |
| 2026-05-08 11:13 | 42.40919 | -71.09212 | 3378 ft | 218 kts | 301° |
| 2026-05-08 11:14 | 42.41931 | -71.10859 | 3716 ft | 240 kts | 323° |
| 2026-05-08 11:14 | 42.43515 | -71.11709 | 4219 ft | 257 kts | 346° |
| 2026-05-08 11:14 | 42.45267 | -71.12168 | 4998 ft | 256 kts | 342° |
| 2026-05-08 11:14 | 42.46966 | -71.12942 | 5787 ft | 256 kts | 333° |
| 2026-05-08 11:15 | 42.48665 | -71.13790 | 6506 ft | 264 kts | 340° |
| 2026-05-08 11:15 | 42.50534 | -71.13926 | 7223 ft | 281 kts | 4° |
| 2026-05-08 11:15 | 42.52379 | -71.12840 | 7940 ft | 301 kts | 33° |
| 2026-05-08 11:15 | 42.53801 | -71.10675 | 8628 ft | 315 kts | 52° |
| 2026-05-08 11:16 | 42.55066 | -71.08212 | 9308 ft | 324 kts | 52° |
| 2026-05-08 11:16 | 42.56381 | -71.05689 | 9991 ft | 331 kts | 51° |
| 2026-05-08 11:16 | 42.57761 | -71.03090 | 10470 ft | 346 kts | 51° |
| 2026-05-08 11:16 | 42.59215 | -71.00371 | 10825 ft | 366 kts | 51° |
| 2026-05-08 11:17 | 42.60747 | -70.97508 | 11193 ft | 383 kts | 52° |
| 2026-05-08 11:17 | 42.62348 | -70.94515 | 11589 ft | 400 kts | 52° |
| 2026-05-08 11:17 | 42.64003 | -70.91420 | 12101 ft | 411 kts | 52° |
| 2026-05-08 11:17 | 42.65702 | -70.88240 | 12692 ft | 419 kts | 53° |
| 2026-05-08 11:18 | 42.67430 | -70.85005 | 13311 ft | 427 kts | 53° |
| 2026-05-08 11:18 | 42.69188 | -70.81711 | 13913 ft | 434 kts | 53° |
| 2026-05-08 11:18 | 42.70966 | -70.78375 | 14515 ft | 438 kts | 53° |
| 2026-05-08 11:18 | 42.72760 | -70.75004 | 15147 ft | 442 kts | 53° |
| 2026-05-08 11:19 | 42.74570 | -70.71602 | 15784 ft | 445 kts | 53° |
| 2026-05-08 11:19 | 42.76389 | -70.68179 | 16451 ft | 448 kts | 53° |
| 2026-05-08 11:19 | 42.78228 | -70.64718 | 17072 ft | 452 kts | 53° |
| 2026-05-08 11:19 | 42.80213 | -70.61388 | 17676 ft | 455 kts | 44° |
| 2026-05-08 11:20 | 42.81732 | -70.59418 | 18115 ft | 456 kts | 39° |
| 2026-05-08 11:20 | 42.84967 | -70.55743 | 18906 ft | 459 kts | 34° |
| 2026-05-08 11:20 | 42.87500 | -70.53069 | 19433 ft | 463 kts | 33° |
| 2026-05-08 11:20 | 42.90074 | -70.50398 | 20013 ft | 468 kts | 33° |
| 2026-05-08 11:21 | 42.92679 | -70.47687 | 20588 ft | 472 kts | 33° |
| 2026-05-08 11:21 | 42.95284 | -70.44945 | 21200 ft | 475 kts | 33° |
| 2026-05-08 11:21 | 42.97052 | -70.43065 | 21583 ft | 478 kts | 33° |
| 2026-05-08 11:21 | 42.99680 | -70.40252 | 22137 ft | 483 kts | 33° |
| 2026-05-08 11:22 | 43.02299 | -70.37431 | 22685 ft | 487 kts | 33° |
| 2026-05-08 11:22 | 43.04998 | -70.34514 | 23296 ft | 490 kts | 33° |
| 2026-05-08 11:22 | 43.07654 | -70.31637 | 23759 ft | 495 kts | 33° |
| 2026-05-08 11:22 | 43.10362 | -70.28701 | 24182 ft | 500 kts | 33° |
| 2026-05-08 11:23 | 43.13099 | -70.25734 | 24615 ft | 505 kts | 33° |
| 2026-05-08 11:23 | 43.15857 | -70.22739 | 25072 ft | 508 kts | 33° |
| 2026-05-08 11:23 | 43.18645 | -70.19708 | 25495 ft | 513 kts | 32° |
| 2026-05-08 11:23 | 43.21449 | -70.16659 | 25913 ft | 517 kts | 32° |
| 2026-05-08 11:24 | 43.24276 | -70.13580 | 26340 ft | 522 kts | 32° |
| 2026-05-08 11:24 | 43.27135 | -70.10463 | 26785 ft | 525 kts | 32° |
| 2026-05-08 11:24 | 43.30003 | -70.07331 | 27207 ft | 530 kts | 32° |
| 2026-05-08 11:24 | 43.32895 | -70.04170 | 27604 ft | 534 kts | 32° |
| 2026-05-08 11:25 | 43.35819 | -70.00969 | 28010 ft | 538 kts | 32° |
| 2026-05-08 11:25 | 43.38753 | -69.97753 | 28463 ft | 542 kts | 32° |
| 2026-05-08 11:25 | 43.41706 | -69.94512 | 28838 ft | 546 kts | 32° |
| 2026-05-08 11:25 | 43.44692 | -69.91231 | 29222 ft | 550 kts | 32° |
| 2026-05-08 11:26 | 43.47689 | -69.87933 | 29602 ft | 554 kts | 32° |
| 2026-05-08 11:26 | 43.50705 | -69.84611 | 30010 ft | 557 kts | 32° |
| 2026-05-08 11:26 | 43.53745 | -69.81256 | 30338 ft | 560 kts | 32° |
| 2026-05-08 11:26 | 43.56787 | -69.77893 | 30678 ft | 562 kts | 32° |
| 2026-05-08 11:27 | 43.59841 | -69.74513 | 31004 ft | 565 kts | 32° |
| 2026-05-08 11:27 | 43.62916 | -69.71106 | 31361 ft | 566 kts | 32° |
| 2026-05-08 11:27 | 43.65987 | -69.67697 | 31668 ft | 568 kts | 32° |
| 2026-05-08 11:27 | 43.69070 | -69.64271 | 31937 ft | 571 kts | 33° |
| 2026-05-08 11:28 | 43.72177 | -69.60817 | 32215 ft | 573 kts | 33° |
| 2026-05-08 11:28 | 43.75281 | -69.57359 | 32541 ft | 574 kts | 33° |
| 2026-05-08 11:28 | 43.78383 | -69.53897 | 32949 ft | 573 kts | 33° |
| 2026-05-08 11:28 | 43.81489 | -69.50425 | 33333 ft | 572 kts | 33° |
| 2026-05-08 11:29 | 43.84580 | -69.46965 | 33714 ft | 572 kts | 33° |
| 2026-05-08 11:29 | 43.87664 | -69.43509 | 34104 ft | 570 kts | 33° |
| 2026-05-08 11:29 | 43.90746 | -69.40051 | 34461 ft | 568 kts | 33° |
| 2026-05-08 11:29 | 43.93808 | -69.36611 | 34778 ft | 567 kts | 34° |
| 2026-05-08 11:30 | 43.96863 | -69.33175 | 35102 ft | 565 kts | 34° |
| 2026-05-08 11:30 | 43.99919 | -69.29734 | 35464 ft | 563 kts | 34° |
| 2026-05-08 11:30 | 44.02952 | -69.26314 | 35794 ft | 562 kts | 34° |
| 2026-05-08 11:30 | 44.05978 | -69.22897 | 36096 ft | 561 kts | 34° |
| 2026-05-08 11:31 | 44.09009 | -69.19470 | 36366 ft | 560 kts | 34° |
| 2026-05-08 11:31 | 44.12022 | -69.16059 | 36677 ft | 558 kts | 34° |
| 2026-05-08 11:31 | 44.15026 | -69.12653 | 36988 ft | 557 kts | 34° |
| 2026-05-08 11:31 | 44.18033 | -69.09239 | 37253 ft | 556 kts | 34° |
| 2026-05-08 11:32 | 44.21026 | -69.05837 | 37493 ft | 556 kts | 34° |
| 2026-05-08 11:32 | 44.24012 | -69.02438 | 37761 ft | 554 kts | 35° |
| 2026-05-08 11:32 | 44.26961 | -68.99076 | 38024 ft | 553 kts | 35° |
| 2026-05-08 11:32 | 44.29974 | -68.95637 | 38252 ft | 553 kts | 35° |
| 2026-05-08 11:33 | 44.32944 | -68.92243 | 38469 ft | 552 kts | 35° |
| 2026-05-08 11:33 | 44.35911 | -68.88847 | 38669 ft | 551 kts | 35° |
| 2026-05-08 11:33 | 44.38840 | -68.85490 | 38796 ft | 551 kts | 35° |
| 2026-05-08 11:34 | 44.44829 | -68.78625 | 38831 ft | 554 kts | 36° |
| 2026-05-08 11:34 | 44.50781 | -68.71767 | 38827 ft | 553 kts | 36° |
| 2026-05-08 11:35 | 44.56678 | -68.64950 | 38820 ft | 553 kts | 36° |
| 2026-05-08 11:35 | 44.62636 | -68.58050 | 38817 ft | 552 kts | 36° |
| 2026-05-08 11:36 | 44.68515 | -68.51223 | 38809 ft | 552 kts | 36° |
| 2026-05-08 11:36 | 44.74427 | -68.44341 | 38811 ft | 551 kts | 36° |
| 2026-05-08 11:37 | 44.80320 | -68.37461 | 38801 ft | 551 kts | 37° |
| 2026-05-08 11:37 | 44.86217 | -68.30558 | 38801 ft | 551 kts | 37° |
| 2026-05-08 11:37 | 44.89161 | -68.27111 | 38921 ft | 550 kts | 38° |
| 2026-05-08 11:38 | 44.92094 | -68.23668 | 38810 ft | 548 kts | 38° |
| 2026-05-08 11:38 | 44.97941 | -68.16781 | 38795 ft | 547 kts | 38° |
| 2026-05-08 11:39 | 45.03786 | -68.09879 | 38790 ft | 548 kts | 38° |
| 2026-05-08 11:39 | 45.09625 | -68.02968 | 38789 ft | 548 kts | 39° |
| 2026-05-08 11:40 | 45.15475 | -67.96025 | 38789 ft | 549 kts | 39° |
| 2026-05-08 11:40 | 45.21325 | -67.89063 | 38783 ft | 549 kts | 39° |
| 2026-05-08 11:41 | 45.27165 | -67.82093 | 38795 ft | 549 kts | 39° |
| 2026-05-08 11:41 | 45.32993 | -67.75063 | 38777 ft | 550 kts | 42° |
| 2026-05-08 11:42 | 45.38226 | -67.67126 | 38783 ft | 550 kts | 48° |
| 2026-05-08 11:42 | 45.43268 | -67.58951 | 38774 ft | 550 kts | 49° |
| 2026-05-08 11:43 | 45.48289 | -67.50716 | 38768 ft | 550 kts | 49° |
| 2026-05-08 11:43 | 45.53282 | -67.42529 | 38775 ft | 550 kts | 49° |
| 2026-05-08 11:44 | 45.58336 | -67.34238 | 38757 ft | 551 kts | 49° |
| 2026-05-08 11:44 | 45.63330 | -67.26027 | 38775 ft | 551 kts | 49° |
| 2026-05-08 11:45 | 45.68353 | -67.17743 | 38757 ft | 551 kts | 49° |
| 2026-05-08 11:45 | 45.73361 | -67.09457 | 38761 ft | 551 kts | 49° |
| 2026-05-08 11:46 | 45.78372 | -67.01140 | 38761 ft | 551 kts | 49° |
| 2026-05-08 11:46 | 45.83378 | -66.92808 | 38749 ft | 551 kts | 50° |
| 2026-05-08 11:47 | 45.88370 | -66.84474 | 38744 ft | 551 kts | 50° |
| 2026-05-08 11:47 | 45.93364 | -66.76111 | 38741 ft | 551 kts | 50° |
| 2026-05-08 11:48 | 45.98353 | -66.67732 | 38740 ft | 551 kts | 50° |
| 2026-05-08 11:48 | 46.03327 | -66.59352 | 38740 ft | 551 kts | 50° |
| 2026-05-08 11:49 | 46.08304 | -66.50943 | 38738 ft | 551 kts | 50° |
| 2026-05-08 11:49 | 46.13274 | -66.42519 | 38742 ft | 551 kts | 50° |
| 2026-05-08 11:50 | 46.18229 | -66.34093 | 38738 ft | 551 kts | 50° |
| 2026-05-08 11:50 | 46.23187 | -66.25638 | 38735 ft | 551 kts | 51° |
| 2026-05-08 11:51 | 46.28129 | -66.17184 | 38732 ft | 551 kts | 51° |
| 2026-05-08 11:51 | 46.33074 | -66.08700 | 38728 ft | 551 kts | 51° |
| 2026-05-08 11:52 | 46.38012 | -66.00200 | 38728 ft | 551 kts | 51° |
| 2026-05-08 11:52 | 46.42937 | -65.91698 | 38725 ft | 551 kts | 51° |
| 2026-05-08 11:53 | 46.47864 | -65.83165 | 38723 ft | 552 kts | 51° |
| 2026-05-08 11:53 | 46.52787 | -65.74612 | 38719 ft | 552 kts | 51° |
| 2026-05-08 11:54 | 46.57699 | -65.66053 | 38720 ft | 552 kts | 52° |
| 2026-05-08 11:54 | 46.62616 | -65.57458 | 38719 ft | 553 kts | 52° |
| 2026-05-08 11:55 | 46.67531 | -65.48840 | 38716 ft | 553 kts | 52° |
| 2026-05-08 11:55 | 46.72433 | -65.40216 | 38712 ft | 553 kts | 52° |
| 2026-05-08 11:56 | 46.77307 | -65.31617 | 38715 ft | 554 kts | 52° |
| 2026-05-08 11:56 | 46.82210 | -65.22938 | 38710 ft | 554 kts | 52° |
| 2026-05-08 11:57 | 46.87133 | -65.14195 | 38706 ft | 554 kts | 52° |
| 2026-05-08 11:57 | 46.91996 | -65.05534 | 38705 ft | 555 kts | 52° |
| 2026-05-08 11:58 | 46.96888 | -64.96791 | 38708 ft | 555 kts | 53° |
| 2026-05-08 11:58 | 47.01770 | -64.88039 | 38706 ft | 556 kts | 53° |
| 2026-05-08 11:59 | 47.09097 | -64.74851 | 38707 ft | 556 kts | 53° |
| 2026-05-08 11:59 | 47.13983 | -64.66022 | 38707 ft | 557 kts | 53° |
| 2026-05-08 12:00 | 47.18867 | -64.57168 | 38708 ft | 558 kts | 53° |
| 2026-05-08 12:00 | 47.23742 | -64.48302 | 38710 ft | 558 kts | 53° |
| 2026-05-08 12:01 | 47.28621 | -64.39398 | 38713 ft | 558 kts | 53° |
| 2026-05-08 12:01 | 47.33496 | -64.30473 | 38710 ft | 559 kts | 53° |
| 2026-05-08 12:02 | 47.38361 | -64.21536 | 38703 ft | 560 kts | 54° |
| 2026-05-08 12:02 | 47.43231 | -64.12560 | 38698 ft | 560 kts | 54° |
| 2026-05-08 12:03 | 47.48099 | -64.03562 | 38702 ft | 560 kts | 54° |
| 2026-05-08 12:03 | 47.52956 | -63.94550 | 38704 ft | 561 kts | 54° |
| 2026-05-08 12:04 | 47.57819 | -63.85499 | 38705 ft | 561 kts | 54° |
| 2026-05-08 12:04 | 47.62667 | -63.76447 | 38707 ft | 561 kts | 54° |
| 2026-05-08 12:05 | 47.67517 | -63.67361 | 38710 ft | 561 kts | 54° |
| 2026-05-08 12:05 | 47.72329 | -63.58314 | 38710 ft | 562 kts | 54° |
| 2026-05-08 12:06 | 47.77196 | -63.49136 | 38711 ft | 562 kts | 54° |
| 2026-05-08 12:06 | 47.81219 | -63.41523 | 38720 ft | 562 kts | 54° |
| 2026-05-08 12:07 | 47.86831 | -63.30869 | 38719 ft | 563 kts | 55° |
| 2026-05-08 12:07 | 47.90872 | -63.23173 | 38712 ft | 563 kts | 55° |
| 2026-05-08 12:08 | 47.95696 | -63.13955 | 38717 ft | 564 kts | 55° |
| 2026-05-08 12:08 | 48.00509 | -63.04728 | 38718 ft | 564 kts | 55° |
| 2026-05-08 12:09 | 48.05324 | -62.95465 | 38719 ft | 564 kts | 55° |
| 2026-05-08 12:09 | 48.10103 | -62.86241 | 38720 ft | 565 kts | 55° |
| 2026-05-08 12:10 | 48.14933 | -62.76885 | 38720 ft | 565 kts | 55° |
| 2026-05-08 12:10 | 48.19736 | -62.67550 | 38718 ft | 566 kts | 56° |
| 2026-05-08 12:11 | 48.24503 | -62.58251 | 38716 ft | 566 kts | 56° |
| 2026-05-08 12:11 | 48.29292 | -62.48880 | 38718 ft | 567 kts | 56° |
| 2026-05-08 12:12 | 48.34084 | -62.39468 | 38718 ft | 567 kts | 56° |
| 2026-05-08 12:12 | 48.38873 | -62.30031 | 38715 ft | 567 kts | 56° |
| 2026-05-08 12:13 | 48.43650 | -62.20584 | 38715 ft | 568 kts | 56° |
| 2026-05-08 12:13 | 48.48429 | -62.11099 | 38717 ft | 568 kts | 56° |
| 2026-05-08 12:14 | 48.53201 | -62.01595 | 38717 ft | 568 kts | 56° |
| 2026-05-08 12:14 | 48.57959 | -61.92087 | 38718 ft | 568 kts | 56° |
| 2026-05-08 12:15 | 48.62718 | -61.82541 | 38713 ft | 568 kts | 56° |
| 2026-05-08 12:15 | 48.67462 | -61.72991 | 38713 ft | 569 kts | 56° |
| 2026-05-08 12:16 | 48.72209 | -61.63404 | 38718 ft | 569 kts | 57° |
| 2026-05-08 12:16 | 48.76949 | -61.53794 | 38718 ft | 569 kts | 57° |
| 2026-05-08 12:17 | 48.81676 | -61.44178 | 38711 ft | 569 kts | 57° |
| 2026-05-08 12:17 | 48.86407 | -61.34517 | 38713 ft | 570 kts | 57° |
| 2026-05-08 12:18 | 48.91136 | -61.24827 | 38714 ft | 571 kts | 57° |
| 2026-05-08 12:18 | 48.95854 | -61.15123 | 38716 ft | 572 kts | 57° |
| 2026-05-08 12:19 | 49.00578 | -61.05374 | 38710 ft | 572 kts | 57° |
| 2026-05-08 12:19 | 49.05296 | -60.95599 | 38715 ft | 572 kts | 57° |
| 2026-05-08 12:20 | 49.10002 | -60.85816 | 38713 ft | 573 kts | 57° |
| 2026-05-08 12:20 | 49.14710 | -60.75991 | 38711 ft | 573 kts | 57° |
| 2026-05-08 12:21 | 49.19413 | -60.66140 | 38725 ft | 573 kts | 58° |
| 2026-05-08 12:21 | 49.24102 | -60.56284 | 38718 ft | 574 kts | 58° |
| 2026-05-08 12:22 | 49.28792 | -60.46388 | 38715 ft | 574 kts | 58° |
| 2026-05-08 12:22 | 49.33442 | -60.36540 | 38717 ft | 574 kts | 58° |
| 2026-05-08 12:23 | 49.38119 | -60.26598 | 38709 ft | 574 kts | 58° |
| 2026-05-08 12:23 | 49.42782 | -60.16650 | 38710 ft | 575 kts | 58° |
| 2026-05-08 12:24 | 49.47446 | -60.06661 | 38711 ft | 575 kts | 58° |
| 2026-05-08 12:24 | 49.52103 | -59.96651 | 38711 ft | 575 kts | 58° |
| 2026-05-08 12:25 | 49.56746 | -59.86634 | 38712 ft | 575 kts | 58° |
| 2026-05-08 12:25 | 49.61388 | -59.76579 | 38710 ft | 575 kts | 58° |
| 2026-05-08 12:26 | 49.66024 | -59.66501 | 38710 ft | 576 kts | 58° |
| 2026-05-08 12:26 | 49.70644 | -59.56418 | 38706 ft | 576 kts | 58° |
| 2026-05-08 12:27 | 49.75264 | -59.46296 | 38708 ft | 576 kts | 58° |
| 2026-05-08 12:27 | 49.79875 | -59.36157 | 38709 ft | 576 kts | 58° |
| 2026-05-08 12:28 | 49.84468 | -59.26018 | 38703 ft | 576 kts | 59° |
| 2026-05-08 12:28 | 49.89059 | -59.15846 | 38716 ft | 575 kts | 59° |
| 2026-05-08 12:29 | 49.93639 | -59.05657 | 38697 ft | 575 kts | 59° |
| 2026-05-08 12:29 | 49.98201 | -58.95469 | 38707 ft | 575 kts | 59° |
| 2026-05-08 12:30 | 50.02731 | -58.85315 | 38704 ft | 575 kts | 59° |
| 2026-05-08 12:30 | 50.07273 | -58.75094 | 38707 ft | 575 kts | 59° |
| 2026-05-08 12:31 | 50.11813 | -58.64839 | 38704 ft | 575 kts | 59° |
| 2026-05-08 12:31 | 50.16341 | -58.54568 | 38704 ft | 574 kts | 59° |
| 2026-05-08 12:32 | 50.20852 | -58.44298 | 38708 ft | 574 kts | 59° |
| 2026-05-08 12:32 | 50.25360 | -58.33995 | 38708 ft | 574 kts | 59° |
| 2026-05-08 12:33 | 50.29859 | -58.23674 | 38707 ft | 574 kts | 59° |
| 2026-05-08 12:33 | 50.34340 | -58.13352 | 38703 ft | 574 kts | 60° |
| 2026-05-08 12:34 | 50.38820 | -58.02992 | 38702 ft | 574 kts | 60° |
| 2026-05-08 12:34 | 50.43277 | -57.92641 | 38700 ft | 573 kts | 60° |
| 2026-05-08 12:35 | 50.47732 | -57.82257 | 38695 ft | 573 kts | 60° |
| 2026-05-08 12:35 | 50.52147 | -57.71925 | 38691 ft | 573 kts | 60° |
| 2026-05-08 12:36 | 50.56604 | -57.61454 | 38683 ft | 573 kts | 60° |
| 2026-05-08 12:36 | 50.61029 | -57.51016 | 38674 ft | 573 kts | 60° |
| 2026-05-08 12:37 | 50.65415 | -57.40628 | 38668 ft | 573 kts | 60° |
| 2026-05-08 12:37 | 50.69844 | -57.30096 | 38661 ft | 573 kts | 60° |
| 2026-05-08 12:38 | 50.74243 | -57.19595 | 38656 ft | 573 kts | 60° |
| 2026-05-08 12:38 | 50.78603 | -57.09143 | 38655 ft | 573 kts | 60° |
| 2026-05-08 12:39 | 50.82978 | -56.98614 | 38652 ft | 573 kts | 60° |
| 2026-05-08 12:39 | 50.87350 | -56.88048 | 38647 ft | 574 kts | 61° |
| 2026-05-08 12:40 | 50.91715 | -56.77457 | 38646 ft | 574 kts | 61° |
| 2026-05-08 12:40 | 50.96065 | -56.66859 | 38642 ft | 574 kts | 61° |
| 2026-05-08 12:41 | 51.00415 | -56.56218 | 38634 ft | 575 kts | 61° |
| 2026-05-08 12:41 | 51.04751 | -56.45569 | 38646 ft | 575 kts | 61° |
| 2026-05-08 12:42 | 51.09087 | -56.34875 | 38633 ft | 575 kts | 61° |
| 2026-05-08 12:42 | 51.13415 | -56.24156 | 38646 ft | 575 kts | 61° |
| 2026-05-08 12:43 | 51.17736 | -56.13412 | 38636 ft | 576 kts | 61° |
| 2026-05-08 12:43 | 51.22039 | -56.02664 | 38646 ft | 576 kts | 61° |
| 2026-05-08 12:44 | 51.26341 | -55.91877 | 38641 ft | 576 kts | 61° |
| 2026-05-08 12:44 | 51.30632 | -55.81072 | 38643 ft | 576 kts | 61° |
| 2026-05-08 12:45 | 51.34905 | -55.70266 | 38645 ft | 575 kts | 61° |
| 2026-05-08 12:45 | 51.39173 | -55.59429 | 38651 ft | 575 kts | 61° |
| 2026-05-08 12:46 | 51.43400 | -55.48651 | 38658 ft | 575 kts | 61° |
| 2026-05-08 12:46 | 51.47635 | -55.37807 | 38658 ft | 574 kts | 61° |
| 2026-05-08 12:47 | 51.51865 | -55.26931 | 38665 ft | 574 kts | 61° |
| 2026-05-08 12:47 | 51.56103 | -55.15985 | 38667 ft | 574 kts | 61° |
| 2026-05-08 12:48 | 51.60281 | -55.05149 | 38679 ft | 574 kts | 62° |
| 2026-05-08 12:48 | 51.64477 | -54.94222 | 38675 ft | 574 kts | 62° |
| 2026-05-08 12:49 | 51.68683 | -54.83219 | 38677 ft | 574 kts | 62° |
| 2026-05-08 12:49 | 51.72831 | -54.72324 | 38675 ft | 574 kts | 62° |
| 2026-05-08 12:50 | 51.76997 | -54.61335 | 38676 ft | 574 kts | 62° |
| 2026-05-08 12:50 | 51.80909 | -54.50163 | 38680 ft | 570 kts | 68° |
| 2026-05-08 12:51 | 51.86006 | -54.32814 | 38681 ft | 569 kts | 70° |
| 2026-05-08 12:52 | 51.89337 | -54.21185 | 38679 ft | 569 kts | 70° |
| 2026-05-08 12:52 | 51.94325 | -54.03729 | 38679 ft | 569 kts | 70° |
| 2026-05-08 12:53 | 51.97645 | -53.92073 | 38676 ft | 569 kts | 70° |
| 2026-05-08 12:53 | 52.00945 | -53.80431 | 38676 ft | 568 kts | 70° |
| 2026-05-08 12:54 | 52.04235 | -53.68765 | 38680 ft | 568 kts | 70° |
| 2026-05-08 12:54 | 52.06954 | -53.59077 | 38677 ft | 567 kts | 70° |
| 2026-05-08 12:55 | 52.10214 | -53.47408 | 38679 ft | 566 kts | 70° |
| 2026-05-08 12:55 | 52.13980 | -53.33854 | 38677 ft | 565 kts | 70° |
| 2026-05-08 12:56 | 52.16681 | -53.24086 | 38678 ft | 565 kts | 70° |
| 2026-05-08 12:56 | 52.19893 | -53.12413 | 38679 ft | 564 kts | 70° |
| 2026-05-08 12:57 | 52.23085 | -53.00757 | 38676 ft | 563 kts | 70° |
| 2026-05-08 12:57 | 52.26267 | -52.89081 | 38682 ft | 562 kts | 70° |
| 2026-05-08 12:58 | 52.29433 | -52.77400 | 38683 ft | 562 kts | 70° |
| 2026-05-08 12:58 | 52.32579 | -52.65733 | 38686 ft | 561 kts | 70° |
| 2026-05-08 12:59 | 52.35718 | -52.54036 | 38687 ft | 561 kts | 70° |
| 2026-05-08 12:59 | 52.38823 | -52.42407 | 38695 ft | 561 kts | 70° |
| 2026-05-08 13:00 | 52.41951 | -52.30628 | 38697 ft | 561 kts | 70° |
| 2026-05-08 13:00 | 52.45031 | -52.18974 | 38701 ft | 561 kts | 70° |
| 2026-05-08 13:01 | 52.48119 | -52.07227 | 38703 ft | 560 kts | 70° |
| 2026-05-08 13:01 | 52.51189 | -51.95488 | 38706 ft | 560 kts | 70° |
| 2026-05-08 13:02 | 52.54252 | -51.83714 | 38711 ft | 560 kts | 70° |
| 2026-05-08 13:02 | 52.57304 | -51.71926 | 38712 ft | 560 kts | 70° |
| 2026-05-08 13:03 | 52.60338 | -51.60141 | 38722 ft | 560 kts | 70° |
| 2026-05-08 13:03 | 52.63367 | -51.48315 | 38721 ft | 561 kts | 70° |
| 2026-05-08 13:04 | 52.66386 | -51.36465 | 38726 ft | 561 kts | 70° |
| 2026-05-08 13:04 | 52.69387 | -51.24624 | 38732 ft | 561 kts | 70° |
| 2026-05-08 13:05 | 52.72381 | -51.12745 | 38732 ft | 561 kts | 70° |
| 2026-05-08 13:05 | 52.75365 | -51.00846 | 38743 ft | 561 kts | 70° |
| 2026-05-08 13:06 | 52.78330 | -50.88958 | 38747 ft | 560 kts | 70° |
| 2026-05-08 13:06 | 52.81266 | -50.77121 | 38753 ft | 560 kts | 70° |
| 2026-05-08 13:07 | 52.84223 | -50.65139 | 38756 ft | 559 kts | 70° |
| 2026-05-08 13:07 | 52.87130 | -50.53293 | 38759 ft | 559 kts | 70° |
| 2026-05-08 13:08 | 52.90041 | -50.41364 | 38767 ft | 558 kts | 70° |
| 2026-05-08 13:08 | 52.92932 | -50.29453 | 38769 ft | 557 kts | 70° |
| 2026-05-08 13:09 | 52.95814 | -50.17517 | 38774 ft | 557 kts | 70° |
| 2026-05-08 13:09 | 52.98681 | -50.05577 | 38780 ft | 556 kts | 70° |
| 2026-05-08 13:10 | 53.00971 | -49.93375 | 38785 ft | 553 kts | 78° |
| 2026-05-08 13:10 | 53.02795 | -49.80959 | 38793 ft | 553 kts | 79° |
| 2026-05-08 13:11 | 53.04547 | -49.68515 | 38799 ft | 553 kts | 79° |
| 2026-05-08 13:11 | 53.06289 | -49.56089 | 38808 ft | 552 kts | 79° |
| 2026-05-08 13:12 | 53.08031 | -49.43641 | 38816 ft | 552 kts | 79° |
| 2026-05-08 13:12 | 53.09764 | -49.31190 | 38823 ft | 552 kts | 79° |
| 2026-05-08 13:13 | 53.11481 | -49.18753 | 38834 ft | 552 kts | 79° |
| 2026-05-08 13:13 | 53.13187 | -49.06285 | 38837 ft | 552 kts | 79° |
| 2026-05-08 13:14 | 53.14868 | -48.93890 | 38838 ft | 552 kts | 79° |
| 2026-05-08 13:14 | 53.16545 | -48.81426 | 38852 ft | 552 kts | 79° |
| 2026-05-08 13:15 | 53.18211 | -48.68935 | 38860 ft | 552 kts | 79° |
| 2026-05-08 13:15 | 53.19863 | -48.56440 | 38864 ft | 551 kts | 79° |
| 2026-05-08 13:16 | 53.21498 | -48.43966 | 38868 ft | 551 kts | 79° |
| 2026-05-08 13:16 | 53.23121 | -48.31472 | 38875 ft | 550 kts | 79° |
| 2026-05-08 13:17 | 53.24730 | -48.18978 | 38877 ft | 550 kts | 78° |
| 2026-05-08 13:17 | 53.26322 | -48.06504 | 38887 ft | 550 kts | 78° |
| 2026-05-08 13:18 | 53.27903 | -47.94005 | 38900 ft | 549 kts | 78° |
| 2026-05-08 13:18 | 53.29471 | -47.81506 | 38909 ft | 549 kts | 78° |
| 2026-05-08 13:19 | 53.31021 | -47.69028 | 38913 ft | 548 kts | 78° |
| 2026-05-08 13:19 | 53.32559 | -47.56533 | 38925 ft | 548 kts | 78° |
| 2026-05-08 13:20 | 53.34083 | -47.44040 | 38934 ft | 547 kts | 78° |
| 2026-05-08 13:20 | 53.35579 | -47.31656 | 38948 ft | 547 kts | 78° |
| 2026-05-08 13:21 | 53.37073 | -47.19173 | 38953 ft | 546 kts | 78° |
| 2026-05-08 13:21 | 53.38562 | -47.06612 | 38968 ft | 546 kts | 78° |
| 2026-05-08 13:22 | 53.40015 | -46.94242 | 38974 ft | 545 kts | 78° |
| 2026-05-08 13:22 | 53.41465 | -46.81774 | 38981 ft | 544 kts | 78° |
| 2026-05-08 13:23 | 53.42907 | -46.69248 | 38993 ft | 544 kts | 78° |
| 2026-05-08 13:23 | 53.44319 | -46.56872 | 39003 ft | 543 kts | 78° |
| 2026-05-08 13:24 | 53.45726 | -46.44417 | 39013 ft | 543 kts | 78° |
| 2026-05-08 13:24 | 53.47117 | -46.31992 | 39019 ft | 542 kts | 78° |
| 2026-05-08 13:25 | 53.48495 | -46.19555 | 39028 ft | 541 kts | 78° |
| 2026-05-08 13:25 | 53.49858 | -46.07128 | 39037 ft | 540 kts | 78° |
| 2026-05-08 13:26 | 53.51204 | -45.94729 | 39045 ft | 540 kts | 78° |
| 2026-05-08 13:26 | 53.52537 | -45.82317 | 39051 ft | 539 kts | 78° |
| 2026-05-08 13:27 | 53.53857 | -45.69911 | 39063 ft | 539 kts | 78° |
| 2026-05-08 13:27 | 53.55159 | -45.57534 | 39065 ft | 538 kts | 78° |
| 2026-05-08 13:28 | 53.56441 | -45.45229 | 39076 ft | 537 kts | 77° |
| 2026-05-08 13:28 | 53.57716 | -45.32851 | 39083 ft | 536 kts | 77° |
| 2026-05-08 13:29 | 53.58976 | -45.20500 | 39091 ft | 536 kts | 77° |
| 2026-05-08 13:29 | 53.60224 | -45.08133 | 39100 ft | 535 kts | 77° |
| 2026-05-08 13:30 | 53.61457 | -44.95772 | 39104 ft | 535 kts | 77° |
| 2026-05-08 13:30 | 53.62674 | -44.83438 | 39114 ft | 534 kts | 77° |
| 2026-05-08 13:31 | 53.63880 | -44.71092 | 39121 ft | 533 kts | 77° |
| 2026-05-08 13:31 | 53.65068 | -44.58775 | 39129 ft | 533 kts | 77° |
| 2026-05-08 13:32 | 53.66245 | -44.46452 | 39141 ft | 532 kts | 77° |
| 2026-05-08 13:32 | 53.67406 | -44.34142 | 39148 ft | 531 kts | 77° |
| 2026-05-08 13:33 | 53.68551 | -44.21867 | 39151 ft | 530 kts | 77° |
| 2026-05-08 13:33 | 53.69684 | -44.09585 | 39159 ft | 529 kts | 77° |
| 2026-05-08 13:34 | 53.70802 | -43.97317 | 39165 ft | 528 kts | 77° |
| 2026-05-08 13:34 | 53.71905 | -43.85078 | 39171 ft | 528 kts | 77° |
| 2026-05-08 13:35 | 53.72996 | -43.72826 | 39175 ft | 527 kts | 77° |
| 2026-05-08 13:35 | 53.74066 | -43.60661 | 39184 ft | 527 kts | 77° |
| 2026-05-08 13:36 | 53.75128 | -43.48440 | 39190 ft | 526 kts | 77° |
| 2026-05-08 13:36 | 53.76178 | -43.36204 | 39199 ft | 526 kts | 77° |
| 2026-05-08 13:37 | 53.77215 | -43.23973 | 39204 ft | 525 kts | 77° |
| 2026-05-08 13:37 | 53.78236 | -43.11774 | 39209 ft | 524 kts | 77° |
| 2026-05-08 13:38 | 53.79245 | -42.99569 | 39214 ft | 523 kts | 77° |
| 2026-05-08 13:38 | 53.80239 | -42.87379 | 39224 ft | 522 kts | 77° |
| 2026-05-08 13:39 | 53.81218 | -42.75225 | 39224 ft | 521 kts | 77° |
| 2026-05-08 13:39 | 53.82185 | -42.63066 | 39229 ft | 521 kts | 77° |
| 2026-05-08 13:40 | 53.83138 | -42.50921 | 39237 ft | 520 kts | 77° |
| 2026-05-08 13:40 | 53.84076 | -42.38809 | 39242 ft | 519 kts | 77° |
| 2026-05-08 13:41 | 53.85002 | -42.26687 | 39246 ft | 518 kts | 77° |
| 2026-05-08 13:41 | 53.85913 | -42.14591 | 39254 ft | 518 kts | 77° |
| 2026-05-08 13:42 | 53.86812 | -42.02492 | 39255 ft | 517 kts | 77° |
| 2026-05-08 13:42 | 53.87692 | -41.90483 | 39262 ft | 516 kts | 77° |
| 2026-05-08 13:43 | 53.88564 | -41.78419 | 39260 ft | 516 kts | 77° |
| 2026-05-08 13:43 | 53.89424 | -41.66340 | 39270 ft | 516 kts | 77° |
| 2026-05-08 13:44 | 53.90272 | -41.54260 | 39274 ft | 515 kts | 77° |
| 2026-05-08 13:44 | 53.91106 | -41.42202 | 39280 ft | 515 kts | 77° |
| 2026-05-08 13:45 | 53.91929 | -41.30121 | 39287 ft | 515 kts | 77° |
| 2026-05-08 13:45 | 53.92737 | -41.18057 | 39289 ft | 515 kts | 77° |
| 2026-05-08 13:46 | 53.93400 | -41.08000 | 39295 ft | 515 kts | 77° |
| 2026-05-08 13:46 | 53.94191 | -40.95854 | 39299 ft | 515 kts | 77° |
| 2026-05-08 13:47 | 53.94962 | -40.83851 | 39306 ft | 514 kts | 77° |
| 2026-05-08 13:47 | 53.95725 | -40.71775 | 39315 ft | 514 kts | 77° |
| 2026-05-08 13:48 | 53.96475 | -40.59724 | 39316 ft | 513 kts | 77° |
| 2026-05-08 13:48 | 53.97212 | -40.47663 | 39325 ft | 513 kts | 77° |
| 2026-05-08 13:49 | 53.97937 | -40.35610 | 39325 ft | 512 kts | 77° |
| 2026-05-08 13:49 | 53.98649 | -40.23584 | 39334 ft | 512 kts | 77° |
| 2026-05-08 13:50 | 53.99349 | -40.11541 | 39336 ft | 512 kts | 77° |
| 2026-05-08 13:50 | 54.00168 | -39.99560 | 39345 ft | 505 kts | 70° |
| 2026-05-08 13:51 | 54.01708 | -39.87991 | 39349 ft | 501 kts | 68° |
| 2026-05-08 13:51 | 54.03358 | -39.76479 | 39355 ft | 500 kts | 68° |
| 2026-05-08 13:52 | 54.05009 | -39.64977 | 39355 ft | 500 kts | 68° |
| 2026-05-08 13:52 | 54.06634 | -39.53490 | 39365 ft | 499 kts | 68° |
| 2026-05-08 13:53 | 54.08242 | -39.41984 | 39367 ft | 499 kts | 68° |
| 2026-05-08 13:53 | 54.09836 | -39.30483 | 39375 ft | 498 kts | 68° |
| 2026-05-08 13:54 | 54.11413 | -39.19010 | 39375 ft | 497 kts | 68° |
| 2026-05-08 13:54 | 54.12980 | -39.07533 | 39381 ft | 496 kts | 68° |
| 2026-05-08 13:55 | 54.14522 | -38.96148 | 39383 ft | 495 kts | 68° |
| 2026-05-08 13:56 | 54.16834 | -38.78919 | 39389 ft | 494 kts | 68° |
| 2026-05-08 13:56 | 54.18349 | -38.67515 | 39388 ft | 493 kts | 68° |
| 2026-05-08 13:57 | 54.19845 | -38.56177 | 39396 ft | 492 kts | 68° |
| 2026-05-08 13:57 | 54.21337 | -38.44778 | 39400 ft | 492 kts | 68° |
| 2026-05-08 13:58 | 54.22820 | -38.33354 | 39406 ft | 492 kts | 68° |
| 2026-05-08 13:58 | 54.24292 | -38.21921 | 39410 ft | 492 kts | 68° |
| 2026-05-08 13:59 | 54.25752 | -38.10494 | 39413 ft | 493 kts | 68° |
| 2026-05-08 13:59 | 54.27204 | -37.99031 | 39417 ft | 493 kts | 68° |
| 2026-05-08 14:00 | 54.28648 | -37.87545 | 39420 ft | 494 kts | 68° |
| 2026-05-08 14:00 | 54.30081 | -37.76050 | 39422 ft | 495 kts | 68° |
| 2026-05-08 14:01 | 54.31508 | -37.64510 | 39427 ft | 495 kts | 68° |
| 2026-05-08 14:01 | 54.32925 | -37.52943 | 39426 ft | 496 kts | 68° |
| 2026-05-08 14:02 | 54.34331 | -37.41367 | 39430 ft | 497 kts | 69° |
| 2026-05-08 14:02 | 54.35730 | -37.29751 | 39432 ft | 497 kts | 69° |
| 2026-05-08 14:03 | 54.37109 | -37.18197 | 39432 ft | 498 kts | 69° |
| 2026-05-08 14:03 | 54.38494 | -37.06495 | 39435 ft | 498 kts | 69° |
| 2026-05-08 14:04 | 54.39862 | -36.94838 | 39444 ft | 498 kts | 69° |
| 2026-05-08 14:04 | 54.41209 | -36.83252 | 39440 ft | 498 kts | 69° |
| 2026-05-08 14:05 | 54.42552 | -36.71606 | 39439 ft | 498 kts | 69° |
| 2026-05-08 14:05 | 54.43884 | -36.59939 | 39449 ft | 497 kts | 70° |
| 2026-05-08 14:06 | 54.45206 | -36.48267 | 39454 ft | 497 kts | 70° |
| 2026-05-08 14:06 | 54.46513 | -36.36608 | 39457 ft | 497 kts | 70° |
| 2026-05-08 14:07 | 54.47812 | -36.24923 | 39460 ft | 497 kts | 70° |
| 2026-05-08 14:07 | 54.49100 | -36.13224 | 39465 ft | 498 kts | 71° |
| 2026-05-08 14:08 | 54.50376 | -36.01528 | 39471 ft | 498 kts | 71° |
| 2026-05-08 14:08 | 54.51644 | -35.89791 | 39476 ft | 499 kts | 71° |
| 2026-05-08 14:09 | 54.52903 | -35.78030 | 39478 ft | 500 kts | 72° |
| 2026-05-08 14:09 | 54.54149 | -35.66265 | 39491 ft | 500 kts | 72° |
| 2026-05-08 14:10 | 54.55388 | -35.54458 | 39485 ft | 501 kts | 72° |
| 2026-05-08 14:10 | 54.56607 | -35.42716 | 39486 ft | 501 kts | 72° |
| 2026-05-08 14:11 | 54.57828 | -35.30831 | 39495 ft | 501 kts | 73° |
| 2026-05-08 14:11 | 54.59025 | -35.19077 | 39498 ft | 501 kts | 73° |
| 2026-05-08 14:12 | 54.60216 | -35.07259 | 39498 ft | 501 kts | 73° |
| 2026-05-08 14:12 | 54.61397 | -34.95415 | 39499 ft | 501 kts | 73° |
| 2026-05-08 14:13 | 54.62566 | -34.83569 | 39502 ft | 500 kts | 73° |
| 2026-05-08 14:13 | 54.63719 | -34.71749 | 39507 ft | 500 kts | 73° |
| 2026-05-08 14:14 | 54.64863 | -34.59916 | 39509 ft | 499 kts | 73° |
| 2026-05-08 14:14 | 54.65993 | -34.48092 | 39515 ft | 498 kts | 74° |
| 2026-05-08 14:15 | 54.67109 | -34.36294 | 39509 ft | 498 kts | 74° |
| 2026-05-08 14:15 | 54.68214 | -34.24483 | 39512 ft | 497 kts | 74° |
| 2026-05-08 14:16 | 54.69306 | -34.12680 | 39519 ft | 497 kts | 74° |
| 2026-05-08 14:16 | 54.70383 | -34.00907 | 39512 ft | 496 kts | 74° |
| 2026-05-08 14:17 | 54.71449 | -33.89122 | 39516 ft | 495 kts | 74° |
| 2026-05-08 14:17 | 54.72503 | -33.77345 | 39517 ft | 495 kts | 74° |
| 2026-05-08 14:18 | 54.73542 | -33.65597 | 39520 ft | 494 kts | 75° |
| 2026-05-08 14:18 | 54.74571 | -33.53839 | 39521 ft | 493 kts | 75° |
| 2026-05-08 14:19 | 54.75587 | -33.42094 | 39521 ft | 493 kts | 75° |
| 2026-05-08 14:19 | 54.76588 | -33.30381 | 39521 ft | 492 kts | 75° |
| 2026-05-08 14:20 | 54.77577 | -33.18663 | 39522 ft | 491 kts | 75° |
| 2026-05-08 14:20 | 54.78553 | -33.06959 | 39520 ft | 490 kts | 75° |
| 2026-05-08 14:21 | 54.79515 | -32.95285 | 39520 ft | 490 kts | 75° |
| 2026-05-08 14:21 | 54.80467 | -32.83600 | 39521 ft | 489 kts | 75° |
| 2026-05-08 14:22 | 54.81400 | -32.71995 | 39523 ft | 489 kts | 75° |
| 2026-05-08 14:22 | 54.82326 | -32.60335 | 39522 ft | 489 kts | 75° |
| 2026-05-08 14:23 | 54.83244 | -32.48649 | 39632 ft | 489 kts | 76° |
| 2026-05-08 14:23 | 54.83697 | -32.42814 | 39830 ft | 488 kts | 76° |
| 2026-05-08 14:23 | 54.84149 | -32.36966 | 40029 ft | 488 kts | 76° |
| 2026-05-08 14:23 | 54.84596 | -32.31138 | 40211 ft | 488 kts | 76° |
| 2026-05-08 14:24 | 54.85040 | -32.25308 | 40381 ft | 488 kts | 76° |
| 2026-05-08 14:24 | 54.85484 | -32.19455 | 40545 ft | 488 kts | 76° |
| 2026-05-08 14:24 | 54.85923 | -32.13619 | 40710 ft | 488 kts | 76° |
| 2026-05-08 14:24 | 54.86359 | -32.07780 | 40862 ft | 489 kts | 77° |
| 2026-05-08 14:25 | 54.86794 | -32.01917 | 41015 ft | 489 kts | 77° |
| 2026-05-08 14:25 | 54.87225 | -31.96071 | 41165 ft | 489 kts | 77° |
| 2026-05-08 14:25 | 54.87654 | -31.90223 | 41318 ft | 489 kts | 77° |
| 2026-05-08 14:25 | 54.88081 | -31.84352 | 41451 ft | 489 kts | 77° |
| 2026-05-08 14:26 | 54.88505 | -31.78488 | 41514 ft | 491 kts | 77° |
| 2026-05-08 14:26 | 54.89344 | -31.66740 | 41515 ft | 490 kts | 77° |
| 2026-05-08 14:27 | 54.90172 | -31.54980 | 41516 ft | 490 kts | 77° |
| 2026-05-08 14:27 | 54.90988 | -31.43225 | 41515 ft | 490 kts | 77° |
| 2026-05-08 14:28 | 54.91794 | -31.31472 | 41517 ft | 489 kts | 77° |
| 2026-05-08 14:28 | 54.92586 | -31.19738 | 41518 ft | 489 kts | 78° |
| 2026-05-08 14:29 | 54.93368 | -31.07985 | 41519 ft | 489 kts | 78° |
| 2026-05-08 14:29 | 54.94137 | -30.96254 | 41510 ft | 489 kts | 78° |
| 2026-05-08 14:30 | 54.94895 | -30.84509 | 41513 ft | 488 kts | 78° |
| 2026-05-08 14:30 | 54.95641 | -30.72765 | 41513 ft | 488 kts | 78° |
| 2026-05-08 14:31 | 54.96375 | -30.61042 | 41513 ft | 488 kts | 78° |
| 2026-05-08 14:31 | 54.97098 | -30.49301 | 41519 ft | 488 kts | 78° |
| 2026-05-08 14:32 | 54.98043 | -30.33673 | 41517 ft | 487 kts | 78° |
| 2026-05-08 14:32 | 54.98738 | -30.21952 | 41511 ft | 487 kts | 78° |
| 2026-05-08 14:33 | 54.99422 | -30.10212 | 41512 ft | 487 kts | 78° |
| 2026-05-08 14:33 | 55.00199 | -29.96573 | 41510 ft | 487 kts | 79° |
| 2026-05-08 14:34 | 55.00627 | -29.86704 | 41506 ft | 488 kts | 81° |
| 2026-05-08 14:34 | 55.01046 | -29.74884 | 41507 ft | 489 kts | 81° |
| 2026-05-08 14:35 | 55.01472 | -29.63066 | 41510 ft | 488 kts | 81° |
| 2026-05-08 14:35 | 55.01909 | -29.51274 | 41504 ft | 488 kts | 81° |
| 2026-05-08 14:36 | 55.02343 | -29.39463 | 41498 ft | 488 kts | 81° |
| 2026-05-08 14:36 | 55.02764 | -29.27668 | 41506 ft | 488 kts | 81° |
| 2026-05-08 14:37 | 55.03175 | -29.15829 | 41501 ft | 488 kts | 81° |
| 2026-05-08 14:37 | 55.03570 | -29.04102 | 41500 ft | 488 kts | 81° |
| 2026-05-08 14:38 | 55.03956 | -28.92275 | 41492 ft | 488 kts | 81° |
| 2026-05-08 14:38 | 55.04331 | -28.80465 | 41494 ft | 488 kts | 81° |
| 2026-05-08 14:39 | 55.04694 | -28.68632 | 41490 ft | 488 kts | 81° |
| 2026-05-08 14:39 | 55.05047 | -28.56795 | 41492 ft | 489 kts | 82° |
| 2026-05-08 14:40 | 55.05388 | -28.44953 | 41493 ft | 489 kts | 82° |
| 2026-05-08 14:40 | 55.05717 | -28.33123 | 41485 ft | 489 kts | 82° |
| 2026-05-08 14:41 | 55.06035 | -28.21270 | 41487 ft | 489 kts | 82° |
| 2026-05-08 14:41 | 55.06341 | -28.09437 | 41486 ft | 489 kts | 82° |
| 2026-05-08 14:42 | 55.06636 | -27.97582 | 41484 ft | 489 kts | 82° |
| 2026-05-08 14:42 | 55.06920 | -27.85723 | 41479 ft | 489 kts | 82° |
| 2026-05-08 14:43 | 55.07191 | -27.73880 | 41481 ft | 489 kts | 82° |
| 2026-05-08 14:43 | 55.07452 | -27.62014 | 41475 ft | 489 kts | 82° |
| 2026-05-08 14:44 | 55.07701 | -27.50146 | 41472 ft | 489 kts | 82° |
| 2026-05-08 14:44 | 55.07938 | -27.38296 | 41469 ft | 489 kts | 83° |
| 2026-05-08 14:45 | 55.08164 | -27.26428 | 41467 ft | 489 kts | 83° |
| 2026-05-08 14:45 | 55.08379 | -27.14556 | 41467 ft | 489 kts | 83° |
| 2026-05-08 14:46 | 55.08581 | -27.02699 | 41465 ft | 489 kts | 83° |
| 2026-05-08 14:46 | 55.08773 | -26.90822 | 41465 ft | 489 kts | 83° |
| 2026-05-08 14:47 | 55.08951 | -26.79022 | 41462 ft | 489 kts | 83° |
| 2026-05-08 14:47 | 55.09120 | -26.67087 | 41460 ft | 489 kts | 83° |
| 2026-05-08 14:48 | 55.09276 | -26.55216 | 41456 ft | 489 kts | 83° |
| 2026-05-08 14:48 | 55.09421 | -26.43425 | 41454 ft | 489 kts | 83° |
| 2026-05-08 14:49 | 55.09556 | -26.31572 | 41454 ft | 489 kts | 83° |
| 2026-05-08 14:49 | 55.09678 | -26.19702 | 41456 ft | 489 kts | 84° |
| 2026-05-08 14:50 | 55.09789 | -26.07854 | 41449 ft | 489 kts | 84° |
| 2026-05-08 14:50 | 55.09888 | -25.95988 | 41448 ft | 488 kts | 84° |
| 2026-05-08 14:51 | 55.09975 | -25.84125 | 41445 ft | 488 kts | 84° |
| 2026-05-08 14:51 | 55.10051 | -25.72261 | 41441 ft | 488 kts | 84° |
| 2026-05-08 14:52 | 55.10143 | -25.54493 | 41428 ft | 488 kts | 84° |
| 2026-05-08 14:53 | 55.10190 | -25.42632 | 41429 ft | 488 kts | 84° |
| 2026-05-08 14:53 | 55.10225 | -25.30772 | 41424 ft | 488 kts | 85° |
| 2026-05-08 14:54 | 55.10250 | -25.18932 | 41430 ft | 488 kts | 85° |
| 2026-05-08 14:54 | 55.10262 | -25.07075 | 41428 ft | 488 kts | 85° |
| 2026-05-08 14:55 | 55.10263 | -24.95221 | 41426 ft | 488 kts | 85° |
| 2026-05-08 14:55 | 55.10253 | -24.83384 | 41425 ft | 488 kts | 85° |
| 2026-05-08 14:56 | 55.10231 | -24.71525 | 41425 ft | 488 kts | 85° |
| 2026-05-08 14:56 | 55.10198 | -24.59663 | 41423 ft | 488 kts | 86° |
| 2026-05-08 14:57 | 55.10153 | -24.47817 | 41417 ft | 488 kts | 86° |
| 2026-05-08 14:57 | 55.10096 | -24.35949 | 41421 ft | 489 kts | 86° |
| 2026-05-08 14:58 | 55.10028 | -24.24077 | 41415 ft | 489 kts | 86° |
| 2026-05-08 14:58 | 55.09949 | -24.12217 | 41411 ft | 489 kts | 86° |
| 2026-05-08 14:59 | 55.09858 | -24.00412 | 41414 ft | 489 kts | 86° |
| 2026-05-08 14:59 | 55.09700 | -23.82581 | 41413 ft | 490 kts | 87° |
| 2026-05-08 15:00 | 55.09579 | -23.70679 | 41410 ft | 490 kts | 87° |
| 2026-05-08 15:00 | 55.09448 | -23.58789 | 41409 ft | 491 kts | 87° |
| 2026-05-08 15:01 | 55.09304 | -23.46872 | 41403 ft | 491 kts | 87° |
| 2026-05-08 15:01 | 55.09149 | -23.34949 | 41405 ft | 491 kts | 87° |
| 2026-05-08 15:02 | 55.08982 | -23.23038 | 41401 ft | 491 kts | 88° |
| 2026-05-08 15:02 | 55.08803 | -23.11102 | 41395 ft | 492 kts | 88° |
| 2026-05-08 15:03 | 55.08612 | -22.99161 | 41408 ft | 492 kts | 88° |
| 2026-05-08 15:03 | 55.08410 | -22.87235 | 41394 ft | 492 kts | 88° |
| 2026-05-08 15:04 | 55.08196 | -22.75284 | 41392 ft | 492 kts | 88° |
| 2026-05-08 15:04 | 55.07970 | -22.63331 | 41391 ft | 493 kts | 88° |
| 2026-05-08 15:05 | 55.07732 | -22.51398 | 41386 ft | 493 kts | 88° |
| 2026-05-08 15:05 | 55.07483 | -22.39440 | 41382 ft | 493 kts | 89° |
| 2026-05-08 15:06 | 55.07223 | -22.27562 | 41381 ft | 493 kts | 89° |
| 2026-05-08 15:06 | 55.06949 | -22.15539 | 41376 ft | 493 kts | 89° |
| 2026-05-08 15:07 | 55.06666 | -22.03649 | 41370 ft | 494 kts | 89° |
| 2026-05-08 15:07 | 55.06367 | -21.91616 | 41372 ft | 494 kts | 89° |
| 2026-05-08 15:08 | 55.06111 | -21.81652 | 41373 ft | 494 kts | 89° |
| 2026-05-08 15:08 | 55.05740 | -21.67739 | 41366 ft | 494 kts | 90° |
| 2026-05-08 15:09 | 55.05408 | -21.55775 | 41364 ft | 495 kts | 90° |
| 2026-05-08 15:09 | 55.05064 | -21.43787 | 41363 ft | 495 kts | 90° |
| 2026-05-08 15:10 | 55.04707 | -21.31795 | 41362 ft | 495 kts | 90° |
| 2026-05-08 15:10 | 55.04339 | -21.19819 | 41360 ft | 495 kts | 90° |
| 2026-05-08 15:11 | 55.03959 | -21.07819 | 41359 ft | 495 kts | 90° |
| 2026-05-08 15:11 | 55.03567 | -20.95818 | 41356 ft | 496 kts | 90° |
| 2026-05-08 15:12 | 55.03163 | -20.83837 | 41354 ft | 496 kts | 91° |
| 2026-05-08 15:12 | 55.02747 | -20.71836 | 41351 ft | 496 kts | 91° |
| 2026-05-08 15:13 | 55.02319 | -20.59832 | 41350 ft | 496 kts | 91° |
| 2026-05-08 15:13 | 55.01880 | -20.47845 | 41348 ft | 496 kts | 91° |
| 2026-05-08 15:14 | 55.01428 | -20.35834 | 41346 ft | 497 kts | 91° |
| 2026-05-08 15:14 | 55.00964 | -20.23820 | 41342 ft | 497 kts | 91° |
| 2026-05-08 15:15 | 55.00491 | -20.11887 | 41342 ft | 497 kts | 92° |
| 2026-05-08 15:15 | 54.99795 | -19.99837 | 41338 ft | 499 kts | 99° |
| 2026-05-08 15:16 | 54.97987 | -19.88215 | 41335 ft | 501 kts | 105° |
| 2026-05-08 15:16 | 54.95931 | -19.76608 | 41333 ft | 502 kts | 105° |
| 2026-05-08 15:17 | 54.93843 | -19.65036 | 41333 ft | 502 kts | 105° |
| 2026-05-08 15:17 | 54.91756 | -19.53447 | 41327 ft | 502 kts | 105° |
| 2026-05-08 15:18 | 54.89672 | -19.41877 | 41329 ft | 502 kts | 105° |
| 2026-05-08 15:18 | 54.87575 | -19.30287 | 41325 ft | 503 kts | 106° |
| 2026-05-08 15:19 | 54.85463 | -19.18701 | 41322 ft | 503 kts | 106° |
| 2026-05-08 15:19 | 54.83343 | -19.07137 | 41319 ft | 504 kts | 106° |
| 2026-05-08 15:20 | 54.81565 | -18.97499 | 41318 ft | 504 kts | 106° |
| 2026-05-08 15:20 | 54.79419 | -18.85932 | 41316 ft | 505 kts | 106° |
| 2026-05-08 15:21 | 54.77256 | -18.74349 | 41309 ft | 505 kts | 107° |
| 2026-05-08 15:21 | 54.75080 | -18.62767 | 41310 ft | 506 kts | 107° |
| 2026-05-08 15:22 | 54.72894 | -18.51201 | 41306 ft | 506 kts | 107° |
| 2026-05-08 15:22 | 54.70693 | -18.39619 | 41306 ft | 507 kts | 107° |
| 2026-05-08 15:23 | 54.68476 | -18.28034 | 41303 ft | 508 kts | 107° |
| 2026-05-08 15:23 | 54.66248 | -18.16465 | 41307 ft | 508 kts | 107° |
| 2026-05-08 15:24 | 54.64003 | -18.04875 | 41302 ft | 509 kts | 108° |
| 2026-05-08 15:24 | 54.61747 | -17.93289 | 41299 ft | 509 kts | 108° |
| 2026-05-08 15:25 | 54.59483 | -17.81730 | 41293 ft | 509 kts | 108° |
| 2026-05-08 15:25 | 54.57203 | -17.70162 | 41295 ft | 509 kts | 108° |
| 2026-05-08 15:26 | 54.54911 | -17.58603 | 41288 ft | 509 kts | 108° |
| 2026-05-08 15:26 | 54.52611 | -17.47076 | 41283 ft | 510 kts | 109° |
| 2026-05-08 15:27 | 54.50296 | -17.35541 | 41283 ft | 510 kts | 109° |
| 2026-05-08 15:27 | 54.47970 | -17.24015 | 41283 ft | 510 kts | 109° |
| 2026-05-08 15:28 | 54.45635 | -17.12513 | 41278 ft | 510 kts | 109° |
| 2026-05-08 15:28 | 54.43284 | -17.01005 | 41279 ft | 510 kts | 109° |
| 2026-05-08 15:29 | 54.40924 | -16.89516 | 41273 ft | 511 kts | 110° |
| 2026-05-08 15:29 | 54.38566 | -16.78099 | 41271 ft | 511 kts | 110° |
| 2026-05-08 15:30 | 54.36183 | -16.66633 | 41264 ft | 511 kts | 110° |
| 2026-05-08 15:30 | 54.33786 | -16.55163 | 41269 ft | 511 kts | 110° |
| 2026-05-08 15:31 | 54.31378 | -16.43705 | 41259 ft | 511 kts | 110° |
| 2026-05-08 15:31 | 54.28962 | -16.32277 | 41261 ft | 511 kts | 111° |
| 2026-05-08 15:32 | 54.26533 | -16.20847 | 41252 ft | 511 kts | 111° |
| 2026-05-08 15:32 | 54.24094 | -16.09431 | 41249 ft | 511 kts | 111° |
| 2026-05-08 15:33 | 54.21647 | -15.98047 | 41247 ft | 511 kts | 111° |
| 2026-05-08 15:33 | 54.19186 | -15.86661 | 41252 ft | 511 kts | 111° |
| 2026-05-08 15:34 | 54.16715 | -15.75293 | 41248 ft | 510 kts | 111° |
| 2026-05-08 15:34 | 54.14238 | -15.63961 | 41244 ft | 510 kts | 111° |
| 2026-05-08 15:35 | 54.11747 | -15.52624 | 41241 ft | 510 kts | 112° |
| 2026-05-08 15:35 | 54.09248 | -15.41308 | 41236 ft | 510 kts | 112° |
| 2026-05-08 15:36 | 54.06742 | -15.30028 | 41238 ft | 510 kts | 112° |
| 2026-05-08 15:36 | 54.04238 | -15.18820 | 41232 ft | 510 kts | 112° |
| 2026-05-08 15:37 | 54.01710 | -15.07553 | 41229 ft | 510 kts | 112° |
| 2026-05-08 15:37 | 54.00123 | -14.95839 | 41231 ft | 512 kts | 94° |
| 2026-05-08 15:38 | 53.99974 | -14.83729 | 41229 ft | 513 kts | 90° |
| 2026-05-08 15:38 | 54.00041 | -14.71593 | 41226 ft | 513 kts | 90° |
| 2026-05-08 15:39 | 54.00099 | -14.59473 | 41227 ft | 513 kts | 90° |
| 2026-05-08 15:39 | 54.00116 | -14.47332 | 41221 ft | 513 kts | 91° |
| 2026-05-08 15:40 | 54.00107 | -14.35191 | 41222 ft | 513 kts | 91° |
| 2026-05-08 15:40 | 54.00084 | -14.23069 | 41218 ft | 513 kts | 91° |
| 2026-05-08 15:41 | 54.00050 | -14.10928 | 41216 ft | 513 kts | 91° |
| 2026-05-08 15:41 | 53.99788 | -13.98811 | 41215 ft | 512 kts | 100° |
| 2026-05-08 15:42 | 53.98630 | -13.86899 | 41212 ft | 512 kts | 102° |
| 2026-05-08 15:42 | 53.97319 | -13.75012 | 41207 ft | 512 kts | 102° |
| 2026-05-08 15:43 | 53.95985 | -13.63134 | 41207 ft | 512 kts | 102° |
| 2026-05-08 15:43 | 53.94654 | -13.51275 | 41203 ft | 512 kts | 102° |
| 2026-05-08 15:44 | 53.93317 | -13.39398 | 41201 ft | 512 kts | 102° |
| 2026-05-08 15:44 | 53.91972 | -13.27546 | 41202 ft | 512 kts | 103° |
| 2026-05-08 15:45 | 53.90612 | -13.15681 | 41197 ft | 512 kts | 103° |
| 2026-05-08 15:45 | 53.89240 | -13.03822 | 41196 ft | 512 kts | 103° |
| 2026-05-08 15:46 | 53.87856 | -12.91968 | 41194 ft | 512 kts | 103° |
| 2026-05-08 15:46 | 53.86471 | -12.80217 | 41191 ft | 513 kts | 103° |
| 2026-05-08 15:47 | 53.85063 | -12.68374 | 41190 ft | 513 kts | 103° |
| 2026-05-08 15:47 | 53.83645 | -12.56554 | 41186 ft | 513 kts | 103° |
| 2026-05-08 15:48 | 53.81494 | -12.38817 | 41184 ft | 513 kts | 103° |
| 2026-05-08 15:49 | 53.80044 | -12.26991 | 41177 ft | 513 kts | 104° |
| 2026-05-08 15:49 | 53.78582 | -12.15170 | 41177 ft | 513 kts | 104° |
| 2026-05-08 15:50 | 53.77110 | -12.03375 | 41176 ft | 513 kts | 104° |
| 2026-05-08 15:50 | 53.75624 | -11.91566 | 41174 ft | 513 kts | 104° |
| 2026-05-08 15:51 | 53.74127 | -11.79763 | 41172 ft | 514 kts | 104° |
| 2026-05-08 15:51 | 53.72620 | -11.67987 | 41169 ft | 514 kts | 104° |
| 2026-05-08 15:52 | 53.71098 | -11.56196 | 41166 ft | 514 kts | 104° |
| 2026-05-08 15:52 | 53.69566 | -11.44417 | 41166 ft | 513 kts | 104° |
| 2026-05-08 15:53 | 53.68025 | -11.32672 | 41163 ft | 513 kts | 105° |
| 2026-05-08 15:53 | 53.66481 | -11.20998 | 41160 ft | 513 kts | 105° |
| 2026-05-08 15:54 | 53.64905 | -11.09180 | 41156 ft | 513 kts | 105° |
| 2026-05-08 15:54 | 53.63342 | -10.97551 | 41151 ft | 513 kts | 105° |
| 2026-05-08 15:55 | 53.61754 | -10.85835 | 41149 ft | 513 kts | 105° |
| 2026-05-08 15:55 | 53.59354 | -10.68295 | 41146 ft | 512 kts | 105° |
| 2026-05-08 15:56 | 53.57742 | -10.56629 | 41140 ft | 512 kts | 105° |
| 2026-05-08 15:56 | 53.56116 | -10.44957 | 41140 ft | 512 kts | 106° |
| 2026-05-08 15:57 | 53.54480 | -10.33296 | 41139 ft | 512 kts | 106° |
| 2026-05-08 15:57 | 53.52835 | -10.21668 | 41132 ft | 512 kts | 106° |
| 2026-05-08 15:58 | 53.51177 | -10.10033 | 41135 ft | 512 kts | 106° |
| 2026-05-08 15:58 | 53.49507 | -9.98410 | 41126 ft | 512 kts | 106° |
| 2026-05-08 15:59 | 53.47827 | -9.86797 | 41116 ft | 511 kts | 106° |
| 2026-05-08 15:59 | 53.46140 | -9.75218 | 41110 ft | 511 kts | 107° |
| 2026-05-08 16:00 | 53.44438 | -9.63629 | 41113 ft | 511 kts | 107° |
| 2026-05-08 16:00 | 53.42726 | -9.52052 | 41104 ft | 511 kts | 107° |
| 2026-05-08 16:01 | 53.41005 | -9.40505 | 41098 ft | 511 kts | 107° |
| 2026-05-08 16:01 | 53.39281 | -9.29026 | 41096 ft | 511 kts | 107° |
| 2026-05-08 16:02 | 53.37539 | -9.17498 | 41091 ft | 511 kts | 107° |
| 2026-05-08 16:02 | 53.35782 | -9.05959 | 41089 ft | 511 kts | 107° |
| 2026-05-08 16:03 | 53.34013 | -8.94429 | 41082 ft | 511 kts | 107° |
| 2026-05-08 16:03 | 53.32237 | -8.82926 | 41083 ft | 511 kts | 107° |
| 2026-05-08 16:04 | 53.30445 | -8.71410 | 41081 ft | 511 kts | 107° |
| 2026-05-08 16:04 | 53.28644 | -8.59909 | 41079 ft | 511 kts | 107° |
| 2026-05-08 16:05 | 53.26832 | -8.48420 | 41077 ft | 511 kts | 108° |
| 2026-05-08 16:05 | 53.25012 | -8.36960 | 41077 ft | 511 kts | 108° |
| 2026-05-08 16:06 | 53.23178 | -8.25496 | 41079 ft | 511 kts | 108° |
| 2026-05-08 16:06 | 53.21347 | -8.14122 | 41076 ft | 511 kts | 108° |
| 2026-05-08 16:07 | 53.19482 | -8.02615 | 41077 ft | 510 kts | 108° |
| 2026-05-08 16:07 | 53.17619 | -7.91202 | 41078 ft | 510 kts | 108° |
| 2026-05-08 16:08 | 53.15761 | -7.81914 | 41079 ft | 507 kts | 114° |
| 2026-05-08 16:08 | 53.13115 | -7.71037 | 41078 ft | 507 kts | 116° |
| 2026-05-08 16:09 | 53.10368 | -7.60243 | 41080 ft | 508 kts | 116° |
| 2026-05-08 16:09 | 53.07614 | -7.49445 | 41076 ft | 508 kts | 116° |
| 2026-05-08 16:10 | 53.04869 | -7.38653 | 41075 ft | 507 kts | 116° |
| 2026-05-08 16:10 | 53.02124 | -7.27875 | 41068 ft | 506 kts | 116° |
| 2026-05-08 16:11 | 52.99368 | -7.17117 | 41072 ft | 506 kts | 116° |
| 2026-05-08 16:11 | 52.96593 | -7.06339 | 41071 ft | 505 kts | 116° |
| 2026-05-08 16:12 | 52.93889 | -6.95870 | 41071 ft | 498 kts | 116° |
| 2026-05-08 16:12 | 52.91121 | -6.85235 | 41073 ft | 506 kts | 116° |
| 2026-05-08 16:13 | 52.88326 | -6.74534 | 41075 ft | 505 kts | 116° |
| 2026-05-08 16:13 | 52.85380 | -6.64085 | 41068 ft | 503 kts | 120° |
| 2026-05-08 16:14 | 52.82238 | -6.53751 | 41074 ft | 503 kts | 120° |
| 2026-05-08 16:14 | 52.79107 | -6.43411 | 41074 ft | 503 kts | 120° |
| 2026-05-08 16:15 | 52.76007 | -6.33064 | 41068 ft | 499 kts | 119° |
| 2026-05-08 16:15 | 52.72988 | -6.22965 | 41072 ft | 491 kts | 120° |
| 2026-05-08 16:16 | 52.69968 | -6.12921 | 41075 ft | 481 kts | 120° |
| 2026-05-08 16:16 | 52.67016 | -6.03142 | 41075 ft | 478 kts | 120° |
| 2026-05-08 16:17 | 52.64015 | -5.93272 | 41075 ft | 487 kts | 120° |
| 2026-05-08 16:17 | 52.60949 | -5.83221 | 41080 ft | 495 kts | 120° |
| 2026-05-08 16:18 | 52.57827 | -5.73013 | 41068 ft | 502 kts | 120° |
| 2026-05-08 16:18 | 52.54685 | -5.62778 | 41070 ft | 502 kts | 120° |
| 2026-05-08 16:19 | 52.51534 | -5.52555 | 41085 ft | 501 kts | 120° |
| 2026-05-08 16:19 | 52.48373 | -5.42351 | 41079 ft | 501 kts | 120° |
| 2026-05-08 16:20 | 52.45208 | -5.32178 | 41061 ft | 501 kts | 120° |
| 2026-05-08 16:20 | 52.42029 | -5.22003 | 41057 ft | 501 kts | 120° |
| 2026-05-08 16:21 | 52.38862 | -5.11910 | 41072 ft | 501 kts | 120° |
| 2026-05-08 16:21 | 52.35649 | -5.01712 | 41067 ft | 501 kts | 120° |
| 2026-05-08 16:22 | 52.32465 | -4.91645 | 41068 ft | 501 kts | 120° |
| 2026-05-08 16:22 | 52.29234 | -4.81474 | 41057 ft | 501 kts | 120° |
| 2026-05-08 16:23 | 52.26032 | -4.71435 | 41060 ft | 501 kts | 120° |
| 2026-05-08 16:23 | 52.22799 | -4.61344 | 41052 ft | 501 kts | 120° |
| 2026-05-08 16:24 | 52.19563 | -4.51283 | 41050 ft | 501 kts | 120° |
| 2026-05-08 16:24 | 52.16314 | -4.41220 | 41042 ft | 501 kts | 120° |
| 2026-05-08 16:25 | 52.13056 | -4.31173 | 41040 ft | 502 kts | 120° |
| 2026-05-08 16:25 | 52.09795 | -4.21157 | 41038 ft | 501 kts | 120° |
| 2026-05-08 16:26 | 52.06521 | -4.11141 | 41038 ft | 501 kts | 120° |
| 2026-05-08 16:26 | 52.03238 | -4.01141 | 41035 ft | 501 kts | 120° |
| 2026-05-08 16:27 | 51.99953 | -3.91173 | 41031 ft | 501 kts | 120° |
| 2026-05-08 16:27 | 51.96655 | -3.81204 | 41034 ft | 501 kts | 121° |
| 2026-05-08 16:28 | 51.93348 | -3.71250 | 41032 ft | 501 kts | 121° |
| 2026-05-08 16:28 | 51.90038 | -3.61329 | 41036 ft | 501 kts | 121° |
| 2026-05-08 16:29 | 51.86716 | -3.51408 | 41039 ft | 501 kts | 121° |
| 2026-05-08 16:29 | 51.83386 | -3.41504 | 41053 ft | 501 kts | 121° |
| 2026-05-08 16:30 | 51.80054 | -3.31633 | 41069 ft | 501 kts | 121° |
| 2026-05-08 16:30 | 51.76709 | -3.21763 | 41084 ft | 501 kts | 121° |
| 2026-05-08 16:31 | 51.73356 | -3.11909 | 41097 ft | 501 kts | 121° |
| 2026-05-08 16:31 | 51.70001 | -3.02088 | 41102 ft | 500 kts | 121° |
| 2026-05-08 16:32 | 51.66633 | -2.92266 | 41102 ft | 500 kts | 121° |
| 2026-05-08 16:32 | 51.63279 | -2.82523 | 41095 ft | 500 kts | 121° |
| 2026-05-08 16:33 | 51.59877 | -2.72682 | 41081 ft | 500 kts | 121° |
| 2026-05-08 16:33 | 51.56508 | -2.62970 | 41046 ft | 500 kts | 121° |
| 2026-05-08 16:34 | 51.53111 | -2.53218 | 41049 ft | 500 kts | 121° |
| 2026-05-08 16:34 | 51.49702 | -2.43469 | 41050 ft | 500 kts | 121° |
| 2026-05-08 16:35 | 51.46289 | -2.33744 | 41045 ft | 501 kts | 121° |
| 2026-05-08 16:35 | 51.42865 | -2.24026 | 41051 ft | 501 kts | 121° |
| 2026-05-08 16:36 | 51.39431 | -2.14317 | 41048 ft | 501 kts | 121° |
| 2026-05-08 16:36 | 51.35990 | -2.04628 | 41047 ft | 501 kts | 122° |
| 2026-05-08 16:37 | 51.32540 | -1.94947 | 41046 ft | 501 kts | 122° |
| 2026-05-08 16:37 | 51.29084 | -1.85291 | 41045 ft | 501 kts | 122° |
| 2026-05-08 16:38 | 51.25622 | -1.75650 | 41048 ft | 501 kts | 122° |
| 2026-05-08 16:38 | 51.22146 | -1.66008 | 41048 ft | 501 kts | 122° |
| 2026-05-08 16:39 | 51.18660 | -1.56377 | 41047 ft | 501 kts | 122° |
| 2026-05-08 16:39 | 51.15173 | -1.46776 | 41050 ft | 501 kts | 122° |
| 2026-05-08 16:40 | 51.11673 | -1.37179 | 41049 ft | 501 kts | 122° |
| 2026-05-08 16:40 | 51.08164 | -1.27590 | 41070 ft | 501 kts | 122° |
| 2026-05-08 16:41 | 51.04649 | -1.18022 | 41073 ft | 501 kts | 122° |
| 2026-05-08 16:42 | 50.99381 | -1.03750 | 41074 ft | 501 kts | 122° |
| 2026-05-08 16:42 | 50.95845 | -0.94215 | 41072 ft | 501 kts | 122° |
| 2026-05-08 16:43 | 50.92282 | -0.84641 | 41069 ft | 501 kts | 122° |
| 2026-05-08 16:43 | 50.88753 | -0.75194 | 41073 ft | 501 kts | 122° |
| 2026-05-08 16:44 | 50.85198 | -0.65712 | 41074 ft | 501 kts | 122° |
| 2026-05-08 16:44 | 50.81627 | -0.56224 | 41072 ft | 501 kts | 123° |
| 2026-05-08 16:45 | 50.78050 | -0.46755 | 41080 ft | 501 kts | 123° |
| 2026-05-08 16:45 | 50.74546 | -0.37511 | 41075 ft | 501 kts | 123° |
| 2026-05-08 16:46 | 50.70908 | -0.27949 | 41080 ft | 501 kts | 123° |
| 2026-05-08 16:46 | 50.67315 | -0.18540 | 41072 ft | 501 kts | 123° |
| 2026-05-08 16:46 | 50.65516 | -0.13841 | 40903 ft | 501 kts | 123° |
| 2026-05-08 16:47 | 50.63712 | -0.09139 | 40661 ft | 497 kts | 123° |
| 2026-05-08 16:47 | 50.61893 | -0.04593 | 40502 ft | 486 kts | 127° |
| 2026-05-08 16:47 | 50.59858 | -0.00353 | 39865 ft | 486 kts | 131° |
| 2026-05-08 16:47 | 50.57706 | 0.03790 | 39002 ft | 493 kts | 132° |
| 2026-05-08 16:48 | 50.55505 | 0.07971 | 38091 ft | 498 kts | 132° |
| 2026-05-08 16:48 | 50.53290 | 0.12172 | 37180 ft | 501 kts | 131° |
| 2026-05-08 16:48 | 50.51056 | 0.16405 | 36355 ft | 503 kts | 132° |
| 2026-05-08 16:48 | 50.48826 | 0.20624 | 35637 ft | 502 kts | 131° |
| 2026-05-08 16:49 | 50.46597 | 0.24835 | 34923 ft | 502 kts | 132° |
| 2026-05-08 16:49 | 50.44365 | 0.29043 | 34139 ft | 503 kts | 132° |
| 2026-05-08 16:49 | 50.42116 | 0.33276 | 33209 ft | 504 kts | 131° |
| 2026-05-08 16:49 | 50.39869 | 0.37500 | 32346 ft | 504 kts | 131° |
| 2026-05-08 16:50 | 50.37622 | 0.41715 | 31509 ft | 505 kts | 131° |
| 2026-05-08 16:50 | 50.35382 | 0.45913 | 30905 ft | 499 kts | 131° |
| 2026-05-08 16:50 | 50.33168 | 0.50056 | 30317 ft | 494 kts | 131° |
| 2026-05-08 16:50 | 50.30972 | 0.54158 | 29665 ft | 490 kts | 131° |
| 2026-05-08 16:51 | 50.28766 | 0.58269 | 29070 ft | 498 kts | 131° |
| 2026-05-08 16:51 | 50.26520 | 0.62446 | 28798 ft | 505 kts | 131° |
| 2026-05-08 16:51 | 50.24275 | 0.66620 | 28437 ft | 498 kts | 131° |
| 2026-05-08 16:51 | 50.22046 | 0.70757 | 27478 ft | 498 kts | 131° |
| 2026-05-08 16:52 | 50.19821 | 0.74879 | 26646 ft | 496 kts | 131° |
| 2026-05-08 16:52 | 50.17609 | 0.78971 | 26147 ft | 487 kts | 131° |
| 2026-05-08 16:52 | 50.15462 | 0.82940 | 25821 ft | 473 kts | 131° |
| 2026-05-08 16:52 | 50.13371 | 0.86799 | 25563 ft | 460 kts | 132° |
| 2026-05-08 16:53 | 50.09337 | 0.94222 | 25058 ft | 438 kts | 132° |
| 2026-05-08 16:53 | 50.07365 | 0.97834 | 24468 ft | 436 kts | 132° |
| 2026-05-08 16:53 | 50.05219 | 1.01011 | 23971 ft | 429 kts | 147° |
| 2026-05-08 16:54 | 50.02614 | 1.03294 | 23519 ft | 422 kts | 156° |
| 2026-05-08 16:54 | 50.00859 | 1.04593 | 23169 ft | 421 kts | 156° |
| 2026-05-08 16:54 | 49.97370 | 1.07166 | 22561 ft | 418 kts | 156° |
| 2026-05-08 16:54 | 49.94751 | 1.09115 | 22111 ft | 415 kts | 156° |
| 2026-05-08 16:55 | 49.92158 | 1.11052 | 21668 ft | 413 kts | 156° |
| 2026-05-08 16:55 | 49.90415 | 1.12355 | 21372 ft | 411 kts | 156° |
| 2026-05-08 16:55 | 49.87025 | 1.14891 | 20815 ft | 404 kts | 156° |
| 2026-05-08 16:55 | 49.84509 | 1.16772 | 20417 ft | 399 kts | 156° |
| 2026-05-08 16:56 | 49.82836 | 1.18024 | 20227 ft | 392 kts | 156° |
| 2026-05-08 16:56 | 49.80579 | 1.19711 | 19916 ft | 385 kts | 156° |
| 2026-05-08 16:56 | 49.78174 | 1.21505 | 19444 ft | 381 kts | 156° |
| 2026-05-08 16:56 | 49.75797 | 1.23277 | 19006 ft | 378 kts | 156° |
| 2026-05-08 16:57 | 49.73441 | 1.25032 | 18537 ft | 375 kts | 156° |
| 2026-05-08 16:57 | 49.71102 | 1.26771 | 18033 ft | 372 kts | 156° |
| 2026-05-08 16:57 | 49.68779 | 1.28497 | 17591 ft | 367 kts | 156° |
| 2026-05-08 16:57 | 49.66501 | 1.30190 | 17240 ft | 361 kts | 156° |
| 2026-05-08 16:58 | 49.64253 | 1.31857 | 16856 ft | 358 kts | 156° |
| 2026-05-08 16:58 | 49.62014 | 1.33515 | 16476 ft | 356 kts | 156° |
| 2026-05-08 16:58 | 49.59782 | 1.35168 | 16097 ft | 354 kts | 156° |
| 2026-05-08 16:58 | 49.57566 | 1.36805 | 15722 ft | 352 kts | 156° |
| 2026-05-08 16:59 | 49.55363 | 1.38431 | 15348 ft | 350 kts | 156° |
| 2026-05-08 16:59 | 49.53170 | 1.40049 | 14966 ft | 348 kts | 156° |
| 2026-05-08 16:59 | 49.50992 | 1.41655 | 14604 ft | 346 kts | 156° |
| 2026-05-08 16:59 | 49.48822 | 1.43253 | 14223 ft | 344 kts | 156° |
| 2026-05-08 17:00 | 49.46669 | 1.44837 | 13856 ft | 343 kts | 156° |
| 2026-05-08 17:00 | 49.44524 | 1.46415 | 13546 ft | 339 kts | 156° |
| 2026-05-08 17:00 | 49.42399 | 1.47974 | 13279 ft | 339 kts | 156° |
| 2026-05-08 17:00 | 49.40270 | 1.49534 | 13005 ft | 338 kts | 156° |
| 2026-05-08 17:01 | 49.38162 | 1.51083 | 12611 ft | 334 kts | 155° |
| 2026-05-08 17:01 | 49.36101 | 1.52598 | 12375 ft | 323 kts | 155° |
| 2026-05-08 17:01 | 49.34098 | 1.54068 | 12172 ft | 313 kts | 155° |
| 2026-05-08 17:01 | 49.32191 | 1.55518 | 11843 ft | 308 kts | 152° |
| 2026-05-08 17:02 | 49.30585 | 1.57657 | 11426 ft | 308 kts | 126° |
| 2026-05-08 17:02 | 49.29806 | 1.60676 | 11068 ft | 307 kts | 99° |
| 2026-05-08 17:02 | 49.29641 | 1.63913 | 10705 ft | 304 kts | 93° |
| 2026-05-08 17:02 | 49.29534 | 1.67142 | 10333 ft | 302 kts | 94° |
| 2026-05-08 17:03 | 49.29407 | 1.70331 | 9966 ft | 299 kts | 94° |
| 2026-05-08 17:03 | 49.29082 | 1.73425 | 9628 ft | 293 kts | 109° |
| 2026-05-08 17:03 | 49.28039 | 1.76020 | 9347 ft | 285 kts | 136° |
| 2026-05-08 17:03 | 49.26462 | 1.77826 | 9090 ft | 284 kts | 149° |
| 2026-05-08 17:04 | 49.24837 | 1.79549 | 8830 ft | 285 kts | 143° |
| 2026-05-08 17:04 | 49.23289 | 1.81437 | 8592 ft | 284 kts | 141° |
| 2026-05-08 17:04 | 49.21756 | 1.83347 | 8363 ft | 284 kts | 141° |
| 2026-05-08 17:04 | 49.20235 | 1.85246 | 8168 ft | 283 kts | 141° |
| 2026-05-08 17:05 | 49.18709 | 1.87145 | 7962 ft | 282 kts | 141° |
| 2026-05-08 17:05 | 49.17186 | 1.89038 | 7806 ft | 281 kts | 141° |
| 2026-05-08 17:05 | 49.15669 | 1.90920 | 7541 ft | 281 kts | 141° |
| 2026-05-08 17:05 | 49.14158 | 1.92792 | 7199 ft | 279 kts | 141° |
| 2026-05-08 17:06 | 49.13156 | 1.94030 | 6987 ft | 279 kts | 141° |
| 2026-05-08 17:06 | 49.12419 | 1.94941 | 6827 ft | 278 kts | 141° |
| 2026-05-08 17:06 | 49.11164 | 1.96488 | 6586 ft | 278 kts | 141° |
| 2026-05-08 17:06 | 49.09657 | 1.98340 | 6338 ft | 277 kts | 141° |
| 2026-05-08 17:07 | 49.08162 | 2.00173 | 6069 ft | 276 kts | 141° |
| 2026-05-08 17:07 | 49.06661 | 2.02004 | 5796 ft | 273 kts | 142° |
| 2026-05-08 17:07 | 49.05191 | 2.03795 | 5546 ft | 267 kts | 141° |
| 2026-05-08 17:07 | 49.03921 | 2.05799 | 5327 ft | 259 kts | 126° |
| 2026-05-08 17:08 | 49.03014 | 2.08101 | 5214 ft | 251 kts | 115° |
| 2026-05-08 17:08 | 49.02330 | 2.10527 | 5113 ft | 249 kts | 112° |
| 2026-05-08 17:08 | 49.01685 | 2.12968 | 5000 ft | 249 kts | 111° |
| 2026-05-08 17:08 | 49.01045 | 2.15421 | 4916 ft | 248 kts | 111° |
| 2026-05-08 17:09 | 49.00670 | 2.17967 | 4817 ft | 245 kts | 94° |
| 2026-05-08 17:09 | 49.00709 | 2.20518 | 4619 ft | 238 kts | 84° |
| 2026-05-08 17:09 | 49.00894 | 2.23007 | 4328 ft | 237 kts | 84° |
| 2026-05-08 17:09 | 49.01028 | 2.25471 | 3978 ft | 237 kts | 85° |
| 2026-05-08 17:10 | 49.01145 | 2.27904 | 3624 ft | 225 kts | 85° |
| 2026-05-08 17:10 | 49.01277 | 2.30253 | 3319 ft | 213 kts | 84° |
| 2026-05-08 17:10 | 49.01395 | 2.32444 | 3023 ft | 201 kts | 85° |
| 2026-05-08 17:10 | 49.01504 | 2.34509 | 2788 ft | 189 kts | 84° |
| 2026-05-08 17:11 | 49.01607 | 2.36414 | 2530 ft | 177 kts | 84° |
| 2026-05-08 17:11 | 49.01705 | 2.38245 | 2279 ft | 165 kts | 84° |
| 2026-05-08 17:11 | 49.01797 | 2.39944 | 2066 ft | 161 kts | 84° |
| 2026-05-08 17:11 | 49.01888 | 2.41619 | 1841 ft | 152 kts | 84° |
| 2026-05-08 17:12 | 49.01969 | 2.43156 | 1640 ft | 142 kts | 84° |
| 2026-05-08 17:12 | 49.02047 | 2.44606 | 1452 ft | 135 kts | 84° |
| 2026-05-08 17:12 | 49.02125 | 2.46024 | 1281 ft | 133 kts | 84° |
| 2026-05-08 17:12 | 49.02194 | 2.47433 | 1098 ft | 134 kts | 84° |
| 2026-05-08 17:13 | 49.02274 | 2.48853 | 905 ft | 135 kts | 82° |
| 2026-05-08 17:13 | 49.02360 | 2.50282 | 716 ft | 136 kts | 83° |
| 2026-05-08 17:13 | 49.02431 | 2.51718 | 506 ft | 132 kts | 82° |
| 2026-05-08 17:13 | 49.02508 | 2.53085 | 369 ft | 128 kts | 83° |
| 2026-05-08 17:14 | 49.02569 | 2.54217 | 366 ft | 79 kts | 85° |
| 2026-05-08 17:14 | 49.02598 | 2.54761 | 360 ft | 27 kts | 85° |
| 2026-05-08 17:14 | 49.02608 | 2.55028 | 366 ft | 25 kts | 89° |
| 2026-05-08 17:14 | 49.02572 | 2.55292 | 367 ft | 26 kts | 112° |
| 2026-05-08 17:15 | 49.02506 | 2.55505 | 368 ft | 14 kts | 117° |
| 2026-05-08 17:15 | 49.02454 | 2.55600 | 368 ft | 11 kts | 153° |
| 2026-05-08 17:15 | 49.02369 | 2.55620 | 364 ft | 14 kts | 174° |
| 2026-05-08 17:15 | 49.02262 | 2.55633 | 362 ft | 17 kts | 175° |
| 2026-05-08 17:16 | 49.02134 | 2.55648 | 362 ft | 20 kts | 175° |
| 2026-05-08 17:16 | 49.01993 | 2.55665 | 361 ft | 16 kts | 176° |
| 2026-05-08 17:16 | 49.01909 | 2.55703 | 368 ft | 10 kts | 133° |
| 2026-05-08 17:16 | 49.01900 | 2.55786 | 365 ft | 9 kts | 90° |
| 2026-05-08 17:17 | 49.01905 | 2.55895 | 365 ft | 12 kts | 85° |
| 2026-05-08 17:17 | 49.01913 | 2.56032 | 361 ft | 14 kts | 85° |
| 2026-05-08 17:17 | 49.01921 | 2.56196 | 365 ft | 17 kts | 85° |
| 2026-05-08 17:17 | 49.01931 | 2.56385 | 367 ft | 19 kts | 85° |
| 2026-05-08 17:18 | 49.01942 | 2.56596 | 363 ft | 21 kts | 85° |
| 2026-05-08 17:18 | 49.01954 | 2.56827 | 361 ft | 23 kts | 84° |
| 2026-05-08 17:18 | 49.01967 | 2.57054 | 366 ft | 20 kts | 85° |
| 2026-05-08 17:18 | 49.01980 | 2.57271 | 363 ft | 22 kts | 85° |
| 2026-05-08 17:19 | 49.01992 | 2.57507 | 367 ft | 23 kts | 85° |
| 2026-05-08 17:19 | 49.01999 | 2.57763 | 366 ft | 25 kts | 97° |
| 2026-05-08 17:19 | 49.01905 | 2.57956 | 363 ft | 22 kts | 155° |
| 2026-05-08 17:19 | 49.01752 | 2.57998 | 364 ft | 23 kts | 174° |
| 2026-05-08 17:20 | 49.01581 | 2.58020 | 367 ft | 26 kts | 176° |
| 2026-05-08 17:20 | 49.01397 | 2.58043 | 361 ft | 28 kts | 175° |
| 2026-05-08 17:20 | 49.01198 | 2.58066 | 367 ft | 30 kts | 175° |
| 2026-05-08 17:20 | 49.01003 | 2.58089 | 364 ft | 25 kts | 175° |
| 2026-05-08 17:21 | 49.00916 | 2.58196 | 367 ft | 13 kts | 94° |
| 2026-05-08 17:21 | 49.00922 | 2.58345 | 367 ft | 15 kts | 86° |
| 2026-05-08 17:21 | 49.00930 | 2.58520 | 366 ft | 18 kts | 86° |
| 2026-05-08 17:21 | 49.00888 | 2.58633 | 366 ft | 11 kts | 158° |
| 2026-05-08 17:22 | 49.00806 | 2.58677 | 362 ft | 14 kts | 161° |
| 2026-05-08 17:22 | 49.00700 | 2.58698 | 360 ft | 15 kts | 174° |
| 2026-05-08 17:22 | 49.00646 | 2.58694 | 362 ft | 4 kts | 215° |
| 2026-05-08 17:22 | 49.00637 | 2.58658 | 366 ft | 6 kts | 257° |
| 2026-05-08 17:23 | 49.00633 | 2.58594 | 366 ft | 4 kts | 266° |
| 2026-05-08 17:23 | 49.00633 | 2.58575 | 365 ft | 0 kts | 268° |